Hikarimaru No.17 — JD2956 — position and weather

sailwx.info

Track history (hours):
 
Tides and Currents Weather Stations Pressure Air Temp Water Temp Dewpoint Dewpoint Depression Visibility Wind Speed Wind Dir Waves Ship Positions

Hikarimaru No.17

Last reported at 2016-Jun-19 14:32 UTC. Time now 2016-Jun-28 09:50 UTC.
Position N 34°40' E 134°43'.
Warning: this ship's position is 8 days out of date.

Length 105 m; draft 6.5 m.

Type: Tanker. MMSI: 431000984.

Date/timePositionNaut miles runAvg speedWind from/ knotsBaromVisibWave heightAir tempDewpointWater temp
2016-Jun-19 14:32N 34°40' E 134°43'1312.3
2016-Jun-19 13:31N 34°38' E 134°58'1313.5
2016-Jun-19 12:33N 34°35' E 135°13'10 1.4
2016-Jun-19 05:30N 34°33' E 135°25'5 5.6
2016-Jun-19 04:33N 34°32' E 135°19'0 0.0
2016-Jun-19 03:32N 34°32' E 135°19'0 0.0
2016-Jun-19 02:32N 34°32' E 135°19'0 0.0
2016-Jun-19 01:32N 34°32' E 135°19'0 0.0
2016-Jun-19 00:32N 34°32' E 135°19'0 0.0
2016-Jun-18 23:32N 34°32' E 135°19'0 0.0
2016-Jun-18 22:32N 34°32' E 135°19'0 0.0
2016-Jun-18 21:32N 34°32' E 135°19'0 0.0
2016-Jun-18 20:14N 34°32' E 135°19'0 0.1
2016-Jun-18 19:32N 34°32' E 135°19'0 0.0
2016-Jun-18 18:26N 34°32' E 135°19'0 0.0
2016-Jun-18 17:32N 34°32' E 135°19'0 0.0
2016-Jun-18 16:32N 34°32' E 135°19'0 0.0
2016-Jun-18 15:26N 34°32' E 135°19'0 0.0
2016-Jun-18 14:32N 34°32' E 135°19'0 0.0
2016-Jun-18 13:32N 34°32' E 135°19'0 0.0
2016-Jun-18 12:26N 34°32' E 135°19'0 0.0
2016-Jun-18 11:32N 34°32' E 135°19'0 0.1
2016-Jun-18 10:32N 34°32' E 135°19'0 0.1
2016-Jun-18 09:20N 34°32' E 135°19'0 0.1
2016-Jun-18 08:32N 34°32' E 135°19'10 9.9
2016-Jun-18 07:33N 34°25' E 135°10'1212.4
2016-Jun-18 06:33N 34°14' E 135°04'4 3.7
2016-Jun-18 05:31N 34°13' E 135°09'0 0.0
2016-Jun-18 04:28N 34°13' E 135°09'0 0.0
2016-Jun-18 03:31N 34°13' E 135°09'0 0.0
2016-Jun-18 02:31N 34°13' E 135°09'0 0.0
2016-Jun-18 01:34N 34°13' E 135°09'0 0.0
2016-Jun-18 00:34N 34°13' E 135°09'0 0.0
2016-Jun-17 23:34N 34°13' E 135°09'0 0.0
2016-Jun-17 22:34N 34°13' E 135°09'0 0.0
2016-Jun-17 21:34N 34°13' E 135°09'0 0.0
2016-Jun-17 20:34N 34°13' E 135°09'0 0.0
2016-Jun-17 19:34N 34°13' E 135°09'0 0.0
2016-Jun-17 18:33N 34°13' E 135°09'0 0.0
2016-Jun-17 17:34N 34°13' E 135°09'0 0.0
2016-Jun-17 16:33N 34°13' E 135°09'0 0.0
2016-Jun-17 15:34N 34°13' E 135°09'0 0.0
2016-Jun-17 14:34N 34°13' E 135°09'0 0.0
2016-Jun-17 13:34N 34°13' E 135°09'0 0.0
2016-Jun-17 12:34N 34°13' E 135°09'0 0.0
2016-Jun-17 11:33N 34°13' E 135°09'0 0.0
2016-Jun-17 10:33N 34°13' E 135°09'0 0.0
2016-Jun-17 09:33N 34°13' E 135°09'0 0.0
2016-Jun-17 08:34N 34°13' E 135°09'0 0.0
2016-Jun-17 07:33N 34°13' E 135°09'0 0.0
2016-Jun-17 06:33N 34°13' E 135°09'2 1.6
2016-Jun-17 05:31N 34°12' E 135°07'3 2.8
2016-Jun-17 04:34N 34°10' E 135°06'8 1.1
2016-Jun-16 21:31N 34°02' E 135°02'6 6.1
2016-Jun-16 20:34N 34°08' E 135°05'0 0.0
2016-Jun-16 19:34N 34°08' E 135°05'0 0.1
2016-Jun-16 18:04N 34°08' E 135°05'0 0.0
2016-Jun-16 17:31N 34°08' E 135°05'0 0.1
2016-Jun-16 16:31N 34°08' E 135°05'0 0.0
2016-Jun-16 15:31N 34°08' E 135°05'0 0.0
2016-Jun-16 14:34N 34°08' E 135°05'0 0.0
2016-Jun-16 13:28N 34°08' E 135°05'0 0.0
2016-Jun-16 12:16N 34°08' E 135°05'0 0.0
2016-Jun-16 11:33N 34°08' E 135°05'0 0.1
2016-Jun-16 10:31N 34°08' E 135°05'0 0.1
2016-Jun-16 09:33N 34°08' E 135°05'1110.1
2016-Jun-16 08:25N 34°18' E 134°59'911.0
2016-Jun-16 07:33N 34°25' E 135°06'1212.4
2016-Jun-16 06:33N 34°32' E 135°19'3 0.4
2016-Jun-15 23:32N 34°33' E 135°22'2 1.8
2016-Jun-15 22:19N 34°32' E 135°20'0 0.0
2016-Jun-15 21:19N 34°32' E 135°20'0 0.0
2016-Jun-15 20:28N 34°32' E 135°20'0 0.0
2016-Jun-15 18:16N 34°32' E 135°20'0 0.0
2016-Jun-15 17:22N 34°32' E 135°20'0 0.0
2016-Jun-15 16:10N 34°32' E 135°20'0 0.1
2016-Jun-15 15:28N 34°32' E 135°20'0 0.0
2016-Jun-15 13:28N 34°32' E 135°20'0 0.0
2016-Jun-15 11:04N 34°32' E 135°20'0 0.0
2016-Jun-15 07:18N 34°32' E 135°20'912.4
2016-Jun-15 06:33N 34°27' E 135°11'1413.8
2016-Jun-15 05:32N 34°16' E 134°59'1110.0
2016-Jun-15 04:29N 34°10' E 135°09'0 0.0
2016-Jun-15 03:32N 34°10' E 135°09'0 0.0
2016-Jun-15 02:32N 34°10' E 135°09'0 0.0
2016-Jun-15 01:32N 34°10' E 135°09'0 0.0
2016-Jun-15 00:23N 34°10' E 135°09'0 0.1
2016-Jun-14 23:32N 34°10' E 135°09'0 0.1
2016-Jun-14 22:29N 34°09' E 135°09'0 0.0
2016-Jun-14 21:32N 34°09' E 135°09'0 0.0
2016-Jun-14 20:29N 34°09' E 135°09'0 0.1
2016-Jun-14 19:29N 34°09' E 135°09'0 0.0
2016-Jun-14 18:32N 34°09' E 135°09'0 0.0
2016-Jun-14 17:32N 34°10' E 135°09'0 0.0
2016-Jun-14 16:32N 34°10' E 135°09'0 0.0
2016-Jun-14 15:32N 34°10' E 135°09'0 0.0
2016-Jun-14 14:32N 34°10' E 135°09'0 0.0
2016-Jun-14 13:32N 34°10' E 135°09'0 0.0
2016-Jun-14 12:29N 34°10' E 135°09'0 0.0
2016-Jun-14 11:17N 34°10' E 135°09'0 0.0
2016-Jun-14 10:11N 34°10' E 135°09'0 0.0
2016-Jun-14 09:32N 34°10' E 135°09'0 0.1
2016-Jun-14 08:29N 34°09' E 135°09'0 0.0
2016-Jun-14 07:29N 34°09' E 135°09'0 0.0
2016-Jun-14 05:32N 34°09' E 135°09'0 0.0
2016-Jun-14 04:32N 34°09' E 135°09'0 0.0
2016-Jun-14 03:29N 34°09' E 135°09'0 0.0
2016-Jun-14 02:29N 34°09' E 135°09'0 0.1
2016-Jun-14 01:29N 34°09' E 135°09'0 0.1
2016-Jun-14 00:32N 34°09' E 135°09'0 0.0
2016-Jun-13 23:32N 34°09' E 135°09'0 0.1
2016-Jun-13 22:29N 34°09' E 135°09'0 0.1
2016-Jun-13 21:32N 34°09' E 135°09'0 0.1
2016-Jun-13 20:32N 34°09' E 135°09'0 0.0
2016-Jun-13 19:26N 34°09' E 135°09'0 0.0
2016-Jun-13 18:29N 34°09' E 135°09'0 0.0
2016-Jun-13 17:32N 34°09' E 135°09'0 0.0
2016-Jun-13 16:20N 34°09' E 135°09'0 0.0
2016-Jun-13 15:32N 34°09' E 135°09'0 0.0
2016-Jun-13 14:11N 34°09' E 135°09'0 0.1
2016-Jun-13 13:23N 34°09' E 135°09'0 0.1
2016-Jun-13 12:29N 34°09' E 135°09'0 0.0
2016-Jun-13 11:26N 34°09' E 135°09'0 0.0
2016-Jun-13 10:29N 34°09' E 135°09'0 0.1
2016-Jun-13 09:32N 34°09' E 135°09'0 0.0
2016-Jun-13 08:32N 34°09' E 135°09'0 0.0
2016-Jun-13 07:29N 34°09' E 135°09'4 4.0
2016-Jun-13 06:32N 34°08' E 135°05'0 0.0
2016-Jun-13 05:33N 34°08' E 135°05'4 3.7
2016-Jun-13 04:33N 34°06' E 135°01'3 0.5
2016-Jun-12 21:31N 34°03' E 135°03'5 4.6
2016-Jun-12 20:30N 34°08' E 135°05'0 0.0
2016-Jun-12 19:09N 34°08' E 135°05'0 0.1
2016-Jun-12 18:18N 34°08' E 135°05'0 0.1
2016-Jun-12 17:33N 34°08' E 135°05'0 0.1
2016-Jun-12 16:33N 34°08' E 135°05'0 0.0
2016-Jun-12 15:33N 34°08' E 135°05'0 0.0
2016-Jun-12 14:30N 34°08' E 135°05'0 0.1
2016-Jun-12 13:33N 34°08' E 135°05'0 0.0
2016-Jun-12 12:33N 34°08' E 135°05'0 0.0
2016-Jun-12 11:33N 34°08' E 135°05'0 0.0
2016-Jun-12 10:33N 34°08' E 135°05'0 0.1
2016-Jun-12 09:33N 34°08' E 135°05'0 0.0
2016-Jun-12 08:33N 34°08' E 135°05'0 0.1
2016-Jun-12 07:30N 34°08' E 135°05'0 0.0
2016-Jun-12 06:33N 34°08' E 135°05'0 0.0
2016-Jun-12 03:33N 34°08' E 135°05'0 0.1
2016-Jun-12 02:27N 34°08' E 135°05'0 0.0
2016-Jun-12 01:30N 34°08' E 135°05'0 0.0
2016-Jun-12 00:33N 34°08' E 135°05'0 0.0
2016-Jun-11 23:30N 34°08' E 135°05'0 0.0
2016-Jun-11 22:12N 34°08' E 135°05'0 0.1
2016-Jun-11 21:33N 34°08' E 135°05'0 0.0
2016-Jun-11 20:27N 34°08' E 135°05'0 0.1
2016-Jun-11 19:30N 34°08' E 135°05'0 0.0
2016-Jun-11 18:33N 34°08' E 135°05'10 9.4
2016-Jun-11 17:31N 34°16' E 134°59'1111.6
2016-Jun-11 16:32N 34°27' E 135°01'1010.0
2016-Jun-11 15:33N 34°37' E 135°01'  
Track history (hours):
 
Tides and Currents Weather Stations Pressure Air Temp Water Temp Dewpoint Dewpoint Depression Visibility Wind Speed Wind Dir Waves Ship Positions

Hikarimaru No.17

Last reported at 2016-Jun-19 14:32 UTC. Time now 2016-Jun-28 09:50 UTC.
Position N 34°40' E 134°43'.
Warning: this ship's position is 8 days out of date.

Length 105 m; draft 6.5 m.

Type: Tanker. MMSI: 431000984.

Date/timePositionNaut miles runAvg speedWind from/ knotsBaromVisibWave heightAir tempDewpointWater temp
2016-Jun-19 14:32N 34°40' E 134°43'1312.3
2016-Jun-19 13:31N 34°38' E 134°58'1313.5
2016-Jun-19 12:33N 34°35' E 135°13'10 1.4
2016-Jun-19 05:30N 34°33' E 135°25'5 5.6
2016-Jun-19 04:33N 34°32' E 135°19'0 0.0
2016-Jun-19 03:32N 34°32' E 135°19'0 0.0
2016-Jun-19 02:32N 34°32' E 135°19'0 0.0
2016-Jun-19 01:32N 34°32' E 135°19'0 0.0
2016-Jun-19 00:32N 34°32' E 135°19'0 0.0
2016-Jun-18 23:32N 34°32' E 135°19'0 0.0
2016-Jun-18 22:32N 34°32' E 135°19'0 0.0
2016-Jun-18 21:32N 34°32' E 135°19'0 0.0
2016-Jun-18 20:14N 34°32' E 135°19'0 0.1
2016-Jun-18 19:32N 34°32' E 135°19'0 0.0
2016-Jun-18 18:26N 34°32' E 135°19'0 0.0
2016-Jun-18 17:32N 34°32' E 135°19'0 0.0
2016-Jun-18 16:32N 34°32' E 135°19'0 0.0
2016-Jun-18 15:26N 34°32' E 135°19'0 0.0
2016-Jun-18 14:32N 34°32' E 135°19'0 0.0
2016-Jun-18 13:32N 34°32' E 135°19'0 0.0
2016-Jun-18 12:26N 34°32' E 135°19'0 0.0
2016-Jun-18 11:32N 34°32' E 135°19'0 0.1
2016-Jun-18 10:32N 34°32' E 135°19'0 0.1
2016-Jun-18 09:20N 34°32' E 135°19'0 0.1
2016-Jun-18 08:32N 34°32' E 135°19'10 9.9
2016-Jun-18 07:33N 34°25' E 135°10'1212.4
2016-Jun-18 06:33N 34°14' E 135°04'4 3.7
2016-Jun-18 05:31N 34°13' E 135°09'0 0.0
2016-Jun-18 04:28N 34°13' E 135°09'0 0.0
2016-Jun-18 03:31N 34°13' E 135°09'0 0.0
2016-Jun-18 02:31N 34°13' E 135°09'0 0.0
2016-Jun-18 01:34N 34°13' E 135°09'0 0.0
2016-Jun-18 00:34N 34°13' E 135°09'0 0.0
2016-Jun-17 23:34N 34°13' E 135°09'0 0.0
2016-Jun-17 22:34N 34°13' E 135°09'0 0.0
2016-Jun-17 21:34N 34°13' E 135°09'0 0.0
2016-Jun-17 20:34N 34°13' E 135°09'0 0.0
2016-Jun-17 19:34N 34°13' E 135°09'0 0.0
2016-Jun-17 18:33N 34°13' E 135°09'0 0.0
2016-Jun-17 17:34N 34°13' E 135°09'0 0.0
2016-Jun-17 16:33N 34°13' E 135°09'0 0.0
2016-Jun-17 15:34N 34°13' E 135°09'0 0.0
2016-Jun-17 14:34N 34°13' E 135°09'0 0.0
2016-Jun-17 13:34N 34°13' E 135°09'0 0.0
2016-Jun-17 12:34N 34°13' E 135°09'0 0.0
2016-Jun-17 11:33N 34°13' E 135°09'0 0.0
2016-Jun-17 10:33N 34°13' E 135°09'0 0.0
2016-Jun-17 09:33N 34°13' E 135°09'0 0.0
2016-Jun-17 08:34N 34°13' E 135°09'0 0.0
2016-Jun-17 07:33N 34°13' E 135°09'0 0.0
2016-Jun-17 06:33N 34°13' E 135°09'2 1.6
2016-Jun-17 05:31N 34°12' E 135°07'3 2.8
2016-Jun-17 04:34N 34°10' E 135°06'8 1.1
2016-Jun-16 21:31N 34°02' E 135°02'6 6.1
2016-Jun-16 20:34N 34°08' E 135°05'0 0.0
2016-Jun-16 19:34N 34°08' E 135°05'0 0.1
2016-Jun-16 18:04N 34°08' E 135°05'0 0.0
2016-Jun-16 17:31N 34°08' E 135°05'0 0.1
2016-Jun-16 16:31N 34°08' E 135°05'0 0.0
2016-Jun-16 15:31N 34°08' E 135°05'0 0.0
2016-Jun-16 14:34N 34°08' E 135°05'0 0.0
2016-Jun-16 13:28N 34°08' E 135°05'0 0.0
2016-Jun-16 12:16N 34°08' E 135°05'0 0.0
2016-Jun-16 11:33N 34°08' E 135°05'0 0.1
2016-Jun-16 10:31N 34°08' E 135°05'0 0.1
2016-Jun-16 09:33N 34°08' E 135°05'1110.1
2016-Jun-16 08:25N 34°18' E 134°59'911.0
2016-Jun-16 07:33N 34°25' E 135°06'1212.4
2016-Jun-16 06:33N 34°32' E 135°19'3 0.4
2016-Jun-15 23:32N 34°33' E 135°22'2 1.8
2016-Jun-15 22:19N 34°32' E 135°20'0 0.0
2016-Jun-15 21:19N 34°32' E 135°20'0 0.0
2016-Jun-15 20:28N 34°32' E 135°20'0 0.0
2016-Jun-15 18:16N 34°32' E 135°20'0 0.0
2016-Jun-15 17:22N 34°32' E 135°20'0 0.0
2016-Jun-15 16:10N 34°32' E 135°20'0 0.1
2016-Jun-15 15:28N 34°32' E 135°20'0 0.0
2016-Jun-15 13:28N 34°32' E 135°20'0 0.0
2016-Jun-15 11:04N 34°32' E 135°20'0 0.0
2016-Jun-15 07:18N 34°32' E 135°20'912.4
2016-Jun-15 06:33N 34°27' E 135°11'1413.8
2016-Jun-15 05:32N 34°16' E 134°59'1110.0
2016-Jun-15 04:29N 34°10' E 135°09'0 0.0
2016-Jun-15 03:32N 34°10' E 135°09'0 0.0
2016-Jun-15 02:32N 34°10' E 135°09'0 0.0
2016-Jun-15 01:32N 34°10' E 135°09'0 0.0
2016-Jun-15 00:23N 34°10' E 135°09'0 0.1
2016-Jun-14 23:32N 34°10' E 135°09'0 0.1
2016-Jun-14 22:29N 34°09' E 135°09'0 0.0
2016-Jun-14 21:32N 34°09' E 135°09'0 0.0
2016-Jun-14 20:29N 34°09' E 135°09'0 0.1
2016-Jun-14 19:29N 34°09' E 135°09'0 0.0
2016-Jun-14 18:32N 34°09' E 135°09'0 0.0
2016-Jun-14 17:32N 34°10' E 135°09'0 0.0
2016-Jun-14 16:32N 34°10' E 135°09'0 0.0
2016-Jun-14 15:32N 34°10' E 135°09'0 0.0
2016-Jun-14 14:32N 34°10' E 135°09'0 0.0
2016-Jun-14 13:32N 34°10' E 135°09'0 0.0
2016-Jun-14 12:29N 34°10' E 135°09'0 0.0
2016-Jun-14 11:17N 34°10' E 135°09'0 0.0
2016-Jun-14 10:11N 34°10' E 135°09'0 0.0
2016-Jun-14 09:32N 34°10' E 135°09'0 0.1
2016-Jun-14 08:29N 34°09' E 135°09'0 0.0
2016-Jun-14 07:29N 34°09' E 135°09'0 0.0
2016-Jun-14 05:32N 34°09' E 135°09'0 0.0
2016-Jun-14 04:32N 34°09' E 135°09'0 0.0
2016-Jun-14 03:29N 34°09' E 135°09'0 0.0
2016-Jun-14 02:29N 34°09' E 135°09'0 0.1
2016-Jun-14 01:29N 34°09' E 135°09'0 0.1
2016-Jun-14 00:32N 34°09' E 135°09'0 0.0
2016-Jun-13 23:32N 34°09' E 135°09'0 0.1
2016-Jun-13 22:29N 34°09' E 135°09'0 0.1
2016-Jun-13 21:32N 34°09' E 135°09'0 0.1
2016-Jun-13 20:32N 34°09' E 135°09'0 0.0
2016-Jun-13 19:26N 34°09' E 135°09'0 0.0
2016-Jun-13 18:29N 34°09' E 135°09'0 0.0
2016-Jun-13 17:32N 34°09' E 135°09'0 0.0
2016-Jun-13 16:20N 34°09' E 135°09'0 0.0
2016-Jun-13 15:32N 34°09' E 135°09'0 0.0
2016-Jun-13 14:11N 34°09' E 135°09'0 0.1
2016-Jun-13 13:23N 34°09' E 135°09'0 0.1
2016-Jun-13 12:29N 34°09' E 135°09'0 0.0
2016-Jun-13 11:26N 34°09' E 135°09'0 0.0
2016-Jun-13 10:29N 34°09' E 135°09'0 0.1
2016-Jun-13 09:32N 34°09' E 135°09'0 0.0
2016-Jun-13 08:32N 34°09' E 135°09'0 0.0
2016-Jun-13 07:29N 34°09' E 135°09'4 4.0
2016-Jun-13 06:32N 34°08' E 135°05'0 0.0
2016-Jun-13 05:33N 34°08' E 135°05'4 3.7
2016-Jun-13 04:33N 34°06' E 135°01'3 0.5
2016-Jun-12 21:31N 34°03' E 135°03'5 4.6
2016-Jun-12 20:30N 34°08' E 135°05'0 0.0
2016-Jun-12 19:09N 34°08' E 135°05'0 0.1
2016-Jun-12 18:18N 34°08' E 135°05'0 0.1
2016-Jun-12 17:33N 34°08' E 135°05'0 0.1
2016-Jun-12 16:33N 34°08' E 135°05'0 0.0
2016-Jun-12 15:33N 34°08' E 135°05'0 0.0
2016-Jun-12 14:30N 34°08' E 135°05'0 0.1
2016-Jun-12 13:33N 34°08' E 135°05'0 0.0
2016-Jun-12 12:33N 34°08' E 135°05'0 0.0
2016-Jun-12 11:33N 34°08' E 135°05'0 0.0
2016-Jun-12 10:33N 34°08' E 135°05'0 0.1
2016-Jun-12 09:33N 34°08' E 135°05'0 0.0
2016-Jun-12 08:33N 34°08' E 135°05'0 0.1
2016-Jun-12 07:30N 34°08' E 135°05'0 0.0
2016-Jun-12 06:33N 34°08' E 135°05'0 0.0
2016-Jun-12 03:33N 34°08' E 135°05'0 0.1
2016-Jun-12 02:27N 34°08' E 135°05'0 0.0
2016-Jun-12 01:30N 34°08' E 135°05'0 0.0
2016-Jun-12 00:33N 34°08' E 135°05'0 0.0
2016-Jun-11 23:30N 34°08' E 135°05'0 0.0
2016-Jun-11 22:12N 34°08' E 135°05'0 0.1
2016-Jun-11 21:33N 34°08' E 135°05'0 0.0
2016-Jun-11 20:27N 34°08' E 135°05'0 0.1
2016-Jun-11 19:30N 34°08' E 135°05'0 0.0
2016-Jun-11 18:33N 34°08' E 135°05'10 9.4
2016-Jun-11 17:31N 34°16' E 134°59'1111.6
2016-Jun-11 16:32N 34°27' E 135°01'1010.0
2016-Jun-11 15:33N 34°37' E 135°01'  

Dump ship's entire track history